Prenter, West Virginia
Current Conditions -  °F | °C
As of 12:05 AM on Monday 20 Oct 2014 (Local Time) from KCRW Reporting Station
Clear Clear  
Wind Chill: 40°   Ceiling: Unl
Heat Index: 40°   Visibility: 8mi
Dew Point: 38°   Wind: 0mph
Humidity: 93%   Direction: NA
Pressure: 30.09"   Gusts: NA
Location:  38.0789°N, 81.6756°W
Report Text: KCRW 200405Z 00000KT 8SM CLR 04/03 A3009 RMK AO2 VLY FG T00440033
Loading
Personal Weather Stations






























Interactive Weather Map
Tropical Storm Tracking
New forecast layout! Learn more

10-Day Weather Forecast

Advertisements
Track Severe Weather on mobile